createdAt,value
2018-12-09T00:02:18.926Z,14.27
2018-12-09T00:04:51.346Z,20.83
2018-12-09T00:07:23.572Z,15.60
2018-12-09T00:09:54.066Z,13.20
2018-12-09T00:12:25.155Z,18.93
2018-12-09T00:14:56.747Z,14.20
2018-12-09T00:17:27.144Z,16.40
2018-12-09T00:19:57.630Z,16.93
2018-12-09T00:22:28.407Z,14.33
2018-12-09T00:24:59.406Z,18.50
2018-12-09T00:27:30.459Z,13.43
2018-12-09T00:30:00.571Z,17.17
2018-12-09T00:32:31.342Z,14.33
2018-12-09T00:35:02.776Z,21.67
2018-12-09T00:37:33.463Z,16.83
2018-12-09T00:40:04.611Z,13.60
2018-12-09T00:42:43.167Z,21.27
2018-12-09T00:45:07.890Z,18.23
2018-12-09T00:47:38.198Z,17.10
2018-12-09T00:50:08.486Z,18.87
2018-12-09T00:52:38.802Z,20.33
2018-12-09T00:55:09.265Z,17.47
2018-12-09T00:57:39.443Z,20.17
2018-12-09T01:00:12.954Z,19.97
2018-12-09T01:02:44.829Z,20.73
2018-12-09T01:05:15.680Z,17.83
2018-12-09T01:07:47.126Z,18.27
2018-12-09T01:10:19.282Z,20.33
2018-12-09T01:12:49.472Z,18.43
2018-12-09T01:15:19.881Z,18.23
2018-12-09T01:17:50.265Z,13.83
2018-12-09T01:20:21.805Z,15.07
2018-12-09T01:22:52.235Z,11.67
2018-12-09T01:25:22.980Z,16.83
2018-12-09T01:27:53.238Z,16.20
2018-12-09T01:30:23.560Z,12.87
2018-12-09T01:32:53.502Z,17.77
2018-12-09T01:35:25.598Z,16.70
2018-12-09T01:37:56.332Z,13.27
2018-12-09T01:40:28.863Z,14.63
2018-12-09T01:42:59.063Z,13.67
2018-12-09T01:45:29.274Z,16.20
2018-12-09T01:47:59.236Z,16.07
2018-12-09T01:50:29.996Z,18.70
2018-12-09T01:54:12.518Z,15.03
2018-12-09T01:56:42.751Z,15.27
2018-12-09T01:59:12.867Z,14.17
2018-12-09T02:01:43.097Z,15.53
2018-12-09T02:04:13.326Z,14.70
2018-12-09T02:06:43.231Z,19.47
2018-12-09T02:09:13.913Z,15.60
2018-12-09T02:11:44.217Z,12.83
2018-12-09T02:14:14.275Z,14.33
2018-12-09T02:16:44.358Z,17.70
2018-12-09T02:19:18.966Z,20.50
2018-12-09T02:21:49.413Z,14.33
2018-12-09T02:24:20.323Z,13.60
2018-12-09T02:26:50.777Z,13.93
2018-12-09T02:29:21.312Z,16.10
2018-12-09T02:31:52.265Z,14.13
2018-12-09T02:34:23.066Z,13.47
2018-12-09T02:36:54.150Z,12.50
2018-12-09T02:39:24.574Z,13.97
2018-12-09T02:41:55.106Z,12.43
2018-12-09T02:44:28.093Z,12.53
2018-12-09T02:46:59.098Z,9.23
2018-12-09T02:49:29.278Z,14.63
2018-12-09T02:51:59.539Z,14.20
2018-12-09T02:54:31.250Z,14.47
2018-12-09T02:57:02.786Z,10.83
2018-12-09T02:59:33.584Z,12.10
2018-12-09T03:02:05.976Z,12.60
2018-12-09T03:04:39.101Z,15.43
2018-12-09T03:07:09.479Z,14.57
2018-12-09T03:09:39.912Z,13.83
2018-12-09T03:12:11.039Z,18.97
2018-12-09T03:14:41.148Z,14.27
2018-12-09T03:17:11.710Z,11.53
2018-12-09T03:19:44.522Z,10.50
2018-12-09T03:22:15.084Z,15.07
2018-12-09T03:24:48.064Z,15.37
2018-12-09T03:27:18.799Z,14.83
2018-12-09T03:29:48.888Z,17.53
2018-12-09T03:32:20.361Z,14.60
2018-12-09T03:34:51.195Z,13.57
2018-12-09T03:37:21.455Z,13.17
2018-12-09T03:39:51.703Z,16.17
2018-12-09T03:42:23.171Z,14.73
2018-12-09T03:44:53.568Z,19.37
2018-12-09T03:47:23.746Z,12.70
2018-12-09T03:49:53.645Z,15.47
2018-12-09T03:52:24.191Z,13.90
2018-12-09T03:54:54.599Z,14.30
2018-12-09T03:57:25.964Z,12.20
2018-12-09T03:59:57.514Z,14.10
2018-12-09T04:02:28.040Z,14.10
2018-12-09T04:04:58.202Z,15.43
2018-12-09T04:07:28.824Z,13.93
2018-12-09T04:09:59.818Z,10.83
2018-12-09T04:12:30.366Z,13.77
2018-12-09T04:15:00.416Z,14.73
2018-12-09T04:17:30.604Z,12.57
2018-12-09T04:20:01.085Z,13.53
2018-12-09T04:22:31.453Z,14.23
2018-12-09T04:25:03.487Z,15.40
2018-12-09T04:27:36.221Z,13.97
2018-12-09T04:30:07.020Z,13.90
2018-12-09T04:32:37.525Z,16.53
2018-12-09T04:35:07.878Z,11.97
2018-12-09T04:37:38.174Z,15.50
2018-12-09T04:40:08.800Z,19.63
2018-12-09T04:42:38.952Z,9.80
2018-12-09T04:45:09.216Z,15.03
2018-12-09T04:47:39.460Z,10.77
2018-12-09T04:50:09.719Z,13.37
2018-12-09T04:52:40.183Z,9.00
2018-12-09T04:55:11.085Z,15.00
2018-12-09T04:57:41.318Z,13.17
2018-12-09T05:00:22.900Z,13.20
2018-12-09T05:02:53.545Z,12.70
2018-12-09T05:05:29.249Z,15.10
2018-12-09T05:07:59.520Z,16.93
2018-12-09T05:10:30.594Z,16.93
2018-12-09T05:13:01.486Z,14.50
2018-12-09T05:17:01.799Z,12.07
2018-12-09T05:19:32.773Z,15.53
2018-12-09T05:22:03.077Z,12.73
2018-12-09T05:24:34.726Z,15.87
2018-12-09T05:27:04.815Z,11.57
2018-12-09T05:29:36.433Z,10.60
2018-12-09T05:32:07.198Z,13.03
2018-12-09T05:34:38.109Z,16.47
2018-12-09T05:37:08.289Z,12.03
2018-12-09T05:39:38.410Z,15.30
2018-12-09T05:42:08.764Z,15.83
2018-12-09T05:44:40.027Z,13.17
2018-12-09T05:47:10.168Z,13.73
2018-12-09T05:49:40.843Z,16.47
2018-12-09T05:52:11.511Z,14.57
2018-12-09T05:54:42.142Z,14.77
2018-12-09T05:57:12.878Z,12.80
2018-12-09T05:59:43.047Z,13.23
2018-12-09T06:02:25.929Z,11.17
2018-12-09T06:04:56.251Z,12.87
2018-12-09T06:07:27.467Z,10.67
2018-12-09T06:09:58.537Z,12.30
2018-12-09T06:12:29.001Z,10.80
2018-12-09T06:15:01.539Z,11.67
2018-12-09T06:17:32.145Z,19.30
2018-12-09T06:20:02.723Z,16.77
2018-12-09T06:22:34.394Z,9.93
2018-12-09T06:25:04.672Z,14.47
2018-12-09T06:27:35.633Z,16.63
2018-12-09T06:30:08.140Z,13.77
2018-12-09T06:32:38.734Z,16.13
2018-12-09T06:35:10.308Z,15.27
2018-12-09T06:37:41.604Z,15.07
2018-12-09T06:40:13.376Z,15.23
2018-12-09T06:42:43.657Z,17.30
2018-12-09T06:45:13.921Z,18.97
2018-12-09T06:47:44.066Z,19.47
2018-12-09T06:50:14.360Z,18.93
2018-12-09T06:52:45.244Z,16.17
2018-12-09T06:55:17.158Z,14.77
2018-12-09T06:57:49.088Z,17.20
2018-12-09T07:00:20.078Z,18.03
2018-12-09T07:02:57.672Z,14.67
2018-12-09T07:05:28.273Z,15.07
2018-12-09T07:07:58.429Z,17.27
2018-12-09T07:10:29.124Z,14.80
2018-12-09T07:13:00.532Z,15.87
2018-12-09T07:15:30.823Z,14.80
2018-12-09T07:18:01.118Z,18.13
2018-12-09T07:20:31.366Z,18.13
2018-12-09T07:23:01.701Z,19.23
2018-12-09T07:25:32.622Z,15.00
2018-12-09T07:28:02.890Z,14.30
2018-12-09T07:30:33.487Z,13.50
2018-12-09T07:33:04.170Z,28.70
2018-12-09T07:35:34.184Z,14.47
2018-12-09T07:38:04.549Z,17.00
2018-12-09T07:40:34.852Z,19.57
2018-12-09T07:43:05.063Z,19.10
2018-12-09T07:45:36.129Z,18.47
2018-12-09T07:48:06.696Z,18.47
2018-12-09T07:50:37.322Z,15.73
2018-12-09T07:53:07.927Z,18.47
2018-12-09T07:55:38.222Z,18.43
2018-12-09T07:58:08.692Z,21.80
2018-12-09T08:00:39.429Z,18.67
2018-12-09T08:03:09.938Z,18.73
2018-12-09T08:05:40.656Z,25.93
2018-12-09T08:08:11.210Z,21.07
2018-12-09T08:10:41.534Z,16.47
2018-12-09T08:13:12.643Z,17.40
2018-12-09T08:15:43.014Z,17.27
2018-12-09T08:18:16.176Z,18.63
2018-12-09T08:20:46.531Z,13.33
2018-12-09T08:23:17.518Z,14.20
2018-12-09T08:25:48.092Z,17.93
2018-12-09T08:28:19.099Z,17.57
2018-12-09T08:30:49.327Z,16.17
2018-12-09T08:33:19.850Z,16.17
2018-12-09T08:35:50.234Z,19.90
2018-12-09T08:38:20.696Z,19.30
2018-12-09T08:40:51.779Z,19.53
2018-12-09T08:43:21.929Z,19.60
2018-12-09T08:45:53.290Z,19.47
2018-12-09T08:48:23.588Z,17.20
2018-12-09T08:50:53.836Z,22.17
2018-12-09T08:53:24.389Z,14.43
2018-12-09T08:55:54.914Z,24.80
2018-12-09T08:58:26.893Z,16.70
2018-12-09T09:00:57.538Z,14.77
2018-12-09T09:03:27.964Z,15.13
2018-12-09T09:05:58.462Z,16.93
2018-12-09T09:08:29.116Z,16.10
2018-12-09T09:11:00.407Z,10.50
2018-12-09T09:13:30.698Z,10.33
2018-12-09T09:16:17.253Z,10.27
2018-12-09T09:19:17.227Z,10.87
2018-12-09T09:21:54.657Z,9.77
2018-12-09T09:24:25.801Z,17.17
2018-12-09T09:26:57.372Z,13.27
2018-12-09T09:29:28.983Z,14.83
2018-12-09T09:31:59.880Z,10.17
2018-12-09T09:34:30.574Z,7.10
2018-12-09T09:37:00.869Z,7.53
2018-12-09T09:39:31.511Z,8.73
2018-12-09T09:42:02.281Z,7.93
2018-12-09T09:44:33.324Z,10.13
2018-12-09T09:47:04.045Z,7.97
2018-12-09T09:49:34.348Z,11.87
2018-12-09T09:52:06.419Z,9.83
2018-12-09T09:54:37.075Z,11.03
2018-12-09T09:57:08.524Z,10.80
2018-12-09T09:59:39.028Z,10.90
2018-12-09T10:02:10.141Z,13.07
2018-12-09T10:04:40.748Z,13.23
2018-12-09T10:07:13.551Z,16.07
2018-12-09T10:09:45.400Z,12.37
2018-12-09T10:12:17.113Z,11.27
2018-12-09T10:14:52.310Z,13.10
2018-12-09T10:17:22.778Z,6.60
2018-12-09T10:19:54.611Z,9.00
2018-12-09T10:22:24.960Z,6.73
2018-12-09T10:24:55.317Z,9.77
2018-12-09T10:27:27.888Z,10.83
2018-12-09T10:29:59.726Z,11.10
2018-12-09T10:32:31.894Z,12.00
2018-12-09T10:35:25.767Z,10.40
2018-12-09T10:37:57.098Z,13.23
2018-12-09T10:40:30.579Z,9.03
2018-12-09T10:43:03.725Z,11.53
2018-12-09T10:45:34.858Z,8.07
2018-12-09T10:48:06.122Z,7.60
2018-12-09T10:50:36.278Z,7.30
2018-12-09T10:53:06.496Z,7.13
2018-12-09T10:55:37.596Z,7.00
2018-12-09T10:58:08.772Z,11.10
2018-12-09T11:00:44.678Z,11.00
2018-12-09T11:03:16.344Z,8.60
2018-12-09T11:05:47.248Z,10.53
2018-12-09T11:08:17.663Z,7.27
2018-12-09T11:10:47.865Z,7.40
2018-12-09T11:13:18.240Z,7.53
2018-12-09T11:15:48.706Z,9.37
2018-12-09T11:18:19.268Z,5.93
2018-12-09T11:20:50.603Z,10.93
2018-12-09T11:23:21.723Z,4.30
2018-12-09T11:25:52.876Z,6.23
2018-12-09T11:28:23.437Z,7.50
2018-12-09T11:30:57.556Z,6.83
2018-12-09T11:33:28.594Z,8.60
2018-12-09T11:35:58.853Z,7.17
2018-12-09T11:38:29.154Z,6.67
2018-12-09T11:40:59.414Z,6.83
2018-12-09T11:43:31.156Z,5.93
2018-12-09T11:46:03.446Z,5.73
2018-12-09T11:48:34.352Z,7.93
2018-12-09T11:51:08.112Z,5.73
2018-12-09T11:53:39.446Z,10.00
2018-12-09T11:56:09.709Z,6.77
2018-12-09T11:58:40.082Z,12.30
2018-12-09T12:01:11.290Z,6.67
2018-12-09T12:03:43.160Z,6.07
2018-12-09T12:06:13.648Z,8.53
2018-12-09T12:08:45.638Z,4.70
2018-12-09T12:11:16.976Z,4.63
2018-12-09T12:13:47.090Z,3.93
2018-12-09T12:16:17.852Z,5.47
2018-12-09T12:18:48.444Z,7.30
2018-12-09T12:21:20.106Z,11.70
2018-12-09T12:23:50.747Z,6.10
2018-12-09T12:26:21.223Z,7.40
2018-12-09T12:28:52.211Z,9.17
2018-12-09T12:31:22.559Z,5.80
2018-12-09T12:33:54.032Z,7.97
2018-12-09T12:36:25.267Z,7.37
2018-12-09T12:38:55.899Z,6.57
2018-12-09T12:41:27.084Z,9.90
2018-12-09T12:43:58.268Z,5.17
2018-12-09T12:46:29.901Z,6.73
2018-12-09T12:49:00.932Z,4.93
2018-12-09T12:51:32.347Z,5.67
2018-12-09T12:54:05.495Z,7.83
2018-12-09T12:56:36.011Z,6.10
2018-12-09T12:59:06.371Z,7.10
2018-12-09T13:01:37.308Z,7.20
2018-12-09T13:04:08.577Z,5.77
2018-12-09T13:06:40.196Z,5.60
2018-12-09T13:09:11.362Z,4.97
2018-12-09T13:11:42.516Z,4.60
2018-12-09T13:14:14.063Z,7.97
2018-12-09T13:16:46.046Z,5.87
2018-12-09T13:19:17.793Z,4.27
2018-12-09T13:21:48.349Z,5.77
2018-12-09T13:24:19.381Z,4.63
2018-12-09T13:26:51.233Z,6.73
2018-12-09T13:29:22.373Z,3.87
2018-12-09T13:31:53.528Z,4.87
2018-12-09T13:34:24.520Z,6.57
2018-12-09T13:36:55.886Z,5.40
2018-12-09T13:39:26.268Z,6.23
2018-12-09T13:41:58.787Z,6.23
2018-12-09T13:44:29.379Z,5.07
2018-12-09T13:46:59.805Z,4.70
2018-12-09T13:49:30.922Z,6.10
2018-12-09T13:52:02.248Z,6.40
2018-12-09T13:54:33.522Z,2.03
2018-12-09T13:57:04.476Z,7.07
2018-12-09T13:59:34.889Z,4.17
2018-12-09T14:02:06.511Z,3.83
2018-12-09T14:04:37.967Z,7.47
2018-12-09T14:07:09.106Z,4.00
2018-12-09T14:09:40.054Z,6.70
2018-12-09T14:12:11.704Z,11.23
2018-12-09T14:14:43.068Z,6.10
2018-12-09T14:17:14.435Z,3.87
2018-12-09T14:19:46.169Z,8.03
2018-12-09T14:22:16.950Z,2.87
2018-12-09T14:24:48.835Z,8.27
2018-12-09T14:27:21.191Z,6.53
2018-12-09T14:29:52.653Z,6.10
2018-12-09T14:32:23.390Z,5.17
2018-12-09T14:34:54.055Z,6.70
2018-12-09T14:37:25.638Z,4.87
2018-12-09T14:39:56.605Z,4.77
2018-12-09T14:42:30.345Z,5.73
2018-12-09T14:45:02.113Z,4.57
2018-12-09T14:47:32.683Z,7.00
2018-12-09T14:50:09.009Z,8.60
2018-12-09T14:52:42.536Z,7.13
2018-12-09T14:55:16.085Z,5.77
2018-12-09T14:57:47.463Z,7.20
2018-12-09T15:00:18.576Z,5.70
2018-12-09T15:02:49.665Z,6.00
2018-12-09T15:05:23.210Z,8.13
2018-12-09T15:08:08.504Z,5.57
2018-12-09T15:13:33.470Z,4.77
2018-12-09T15:16:07.473Z,5.23
2018-12-09T15:18:46.119Z,2.63
2018-12-09T15:21:17.245Z,6.17
2018-12-09T15:23:47.962Z,7.43
2018-12-09T15:26:19.218Z,7.13
2018-12-09T15:29:00.266Z,5.60
2018-12-09T15:31:32.147Z,3.40
2018-12-09T15:34:03.203Z,6.70
2018-12-09T15:36:36.176Z,5.67
2018-12-09T15:39:07.909Z,6.87
2018-12-09T15:41:43.902Z,8.33
2018-12-09T15:44:23.342Z,9.60
2018-12-09T15:47:08.466Z,8.53
2018-12-09T15:49:39.899Z,8.47
2018-12-09T15:52:12.879Z,6.97
2018-12-09T15:54:45.260Z,7.30
2018-12-09T15:57:15.660Z,5.33
2018-12-09T15:59:46.504Z,7.00
2018-12-09T16:02:19.246Z,7.20
2018-12-09T16:04:57.407Z,8.03
2018-12-09T16:07:34.501Z,7.33
2018-12-09T16:10:08.011Z,10.23
2018-12-09T16:12:41.243Z,6.30
2018-12-09T16:15:13.239Z,11.10
2018-12-09T16:17:44.804Z,8.30
2018-12-09T16:20:15.443Z,4.87
2018-12-09T16:22:49.714Z,8.27
2018-12-09T16:25:20.949Z,4.53
2018-12-09T16:27:52.156Z,5.67
2018-12-09T16:30:22.687Z,6.57
2018-12-09T16:32:54.146Z,7.07
2018-12-09T16:35:24.789Z,5.87
2018-12-09T16:37:55.808Z,6.57
2018-12-09T16:40:26.708Z,4.87
2018-12-09T16:42:57.555Z,5.60
2018-12-09T16:45:27.825Z,5.20
2018-12-09T16:48:00.875Z,6.27
2018-12-09T16:50:33.153Z,6.97
2018-12-09T16:53:05.318Z,5.97
2018-12-09T16:55:36.778Z,4.37
2018-12-09T16:58:07.371Z,5.43
2018-12-09T17:00:37.552Z,5.03
2018-12-09T17:03:08.702Z,5.40
2018-12-09T17:05:38.936Z,8.23
2018-12-09T17:08:10.179Z,5.73
2018-12-09T17:10:41.789Z,6.27
2018-12-09T17:13:12.076Z,4.33
2018-12-09T17:15:42.848Z,4.53
2018-12-09T17:18:13.237Z,6.33
2018-12-09T17:20:44.175Z,5.93
2018-12-09T17:23:15.134Z,6.83
2018-12-09T17:25:46.403Z,3.10
2018-12-09T17:28:16.269Z,6.57
2018-12-09T17:30:49.052Z,6.73
2018-12-09T17:33:21.009Z,4.20
2018-12-09T17:35:52.438Z,6.07
2018-12-09T17:38:24.160Z,7.60
2018-12-09T17:40:54.453Z,8.23
2018-12-09T17:43:25.442Z,5.13
2018-12-09T17:45:56.126Z,5.67
2018-12-09T17:48:27.181Z,7.57
2018-12-09T17:50:57.360Z,7.80
2018-12-09T17:53:28.400Z,5.83
2018-12-09T17:55:58.675Z,6.20
2018-12-09T17:58:29.867Z,4.67
2018-12-09T18:01:00.551Z,4.90
2018-12-09T18:03:31.450Z,5.13
2018-12-09T18:06:01.622Z,7.30
2018-12-09T18:08:32.128Z,8.40
2018-12-09T18:11:03.717Z,5.03
2018-12-09T18:13:33.881Z,5.27
2018-12-09T18:16:05.291Z,7.13
2018-12-09T18:18:36.300Z,5.93
2018-12-09T18:21:07.654Z,5.43
2018-12-09T18:23:38.444Z,4.47
2018-12-09T18:26:10.208Z,8.50
2018-12-09T18:28:41.740Z,5.60
2018-12-09T18:31:13.711Z,8.70
2018-12-09T18:33:43.740Z,8.57
2018-12-09T18:36:15.115Z,5.67
2018-12-09T18:38:45.776Z,6.60
2018-12-09T18:41:16.141Z,7.67
2018-12-09T18:43:46.508Z,6.87
2018-12-09T18:46:16.663Z,4.07
2018-12-09T18:48:47.708Z,5.03
2018-12-09T18:51:17.873Z,11.83
2018-12-09T18:53:49.669Z,4.87
2018-12-09T18:56:19.658Z,6.03
2018-12-09T18:58:50.610Z,12.57
2018-12-09T19:01:21.764Z,6.23
2018-12-09T19:03:52.948Z,10.00
2018-12-09T19:06:23.879Z,5.27
2018-12-09T19:08:56.385Z,7.03
2018-12-09T19:11:28.003Z,15.07
2018-12-09T19:13:58.292Z,9.07
2018-12-09T19:16:29.089Z,5.63
2018-12-09T19:18:59.533Z,5.90
2018-12-09T19:21:29.443Z,9.43
2018-12-09T19:23:59.778Z,7.43
2018-12-09T19:26:30.865Z,6.87
2018-12-09T19:29:02.122Z,11.43
2018-12-09T19:31:32.116Z,7.93
2018-12-09T19:34:02.480Z,10.40
2018-12-09T19:36:32.797Z,7.90
2018-12-09T19:39:02.974Z,6.13
2018-12-09T19:41:34.838Z,5.97
2018-12-09T19:44:05.019Z,6.10
2018-12-09T19:46:35.103Z,6.27
2018-12-09T19:49:05.365Z,6.93
2018-12-09T19:51:35.329Z,6.80
2018-12-09T19:54:07.087Z,7.47
2018-12-09T19:56:38.052Z,7.73
2018-12-09T19:59:08.443Z,10.57
2018-12-09T20:01:39.508Z,6.67
2018-12-09T20:04:12.504Z,7.70
2018-12-09T20:06:43.827Z,10.67
2018-12-09T20:09:14.048Z,10.30
2018-12-09T20:11:44.162Z,6.87
2018-12-09T20:14:14.582Z,6.73
2018-12-09T20:16:45.929Z,6.37
2018-12-09T20:19:16.318Z,7.63
2018-12-09T20:21:46.552Z,8.97
2018-12-09T20:24:17.059Z,6.87
2018-12-09T20:26:47.542Z,9.13
2018-12-09T20:29:18.167Z,7.87
2018-12-09T20:31:48.509Z,9.83
2018-12-09T20:34:19.815Z,6.47
2018-12-09T20:36:50.777Z,6.83
2018-12-09T20:39:20.934Z,10.97
2018-12-09T20:41:51.261Z,8.17
2018-12-09T20:44:22.853Z,9.03
2018-12-09T20:46:53.064Z,5.53
2018-12-09T20:49:23.932Z,12.23
2018-12-09T20:51:54.482Z,11.50
2018-12-09T20:54:25.307Z,8.67
2018-12-09T20:56:55.904Z,10.23
2018-12-09T20:59:27.395Z,8.77
2018-12-09T21:01:57.843Z,9.27
2018-12-09T21:04:27.993Z,8.23
2018-12-09T21:06:59.626Z,8.63
2018-12-09T21:09:31.034Z,9.73
2018-12-09T21:12:02.993Z,9.10
2018-12-09T21:14:33.379Z,12.90
2018-12-09T21:17:04.940Z,8.00
2018-12-09T21:19:35.005Z,9.90
2018-12-09T21:22:05.230Z,7.40
2018-12-09T21:24:35.789Z,6.47
2018-12-09T21:27:07.421Z,6.80
2018-12-09T21:29:39.065Z,7.80
2018-12-09T21:32:09.683Z,5.57
2018-12-09T21:34:39.749Z,7.37
2018-12-09T21:37:10.818Z,8.47
2018-12-09T21:39:41.467Z,10.50
2018-12-09T21:42:11.852Z,6.87
2018-12-09T21:44:42.022Z,10.07
2018-12-09T21:47:12.606Z,6.30
2018-12-09T21:49:42.795Z,9.53
2018-12-09T21:52:13.492Z,6.17
2018-12-09T21:54:44.322Z,8.80
2018-12-09T21:57:15.960Z,7.63
2018-12-09T21:59:46.810Z,9.07
2018-12-09T22:02:19.122Z,10.70
2018-12-09T22:04:49.505Z,8.20
2018-12-09T22:07:21.238Z,9.00
2018-12-09T22:09:51.364Z,8.07
2018-12-09T22:12:23.224Z,7.73
2018-12-09T22:14:54.770Z,8.27
2018-12-09T22:17:27.238Z,7.63
2018-12-09T22:20:00.353Z,6.70
2018-12-09T22:22:32.446Z,7.93
2018-12-09T22:25:04.580Z,8.80
2018-12-09T22:27:35.890Z,6.67
2018-12-09T22:30:07.579Z,6.70
2018-12-09T22:32:40.570Z,4.20
2018-12-09T22:35:13.464Z,8.03
2018-12-09T22:37:47.062Z,7.23
2018-12-09T22:40:18.502Z,8.57
2018-12-09T22:42:48.967Z,11.43
2018-12-09T22:45:19.881Z,7.23
2018-12-09T22:47:49.978Z,6.07
2018-12-09T22:50:20.886Z,5.90
2018-12-09T22:52:52.436Z,4.70
2018-12-09T22:55:23.047Z,3.77
2018-12-09T22:57:53.736Z,10.73
2018-12-09T23:00:28.726Z,5.77
2018-12-09T23:03:03.622Z,7.10
2018-12-09T23:05:34.362Z,3.60
2018-12-09T23:08:04.847Z,5.20
2018-12-09T23:10:35.059Z,6.93
2018-12-09T23:13:06.280Z,4.47
2018-12-09T23:15:36.343Z,6.20
2018-12-09T23:18:06.901Z,5.00
2018-12-09T23:20:37.139Z,6.47
2018-12-09T23:23:07.902Z,6.37
2018-12-09T23:25:38.214Z,5.17
2018-12-09T23:28:08.102Z,5.37
2018-12-09T23:30:38.440Z,6.93
2018-12-09T23:33:08.844Z,4.13
2018-12-09T23:35:39.171Z,8.67
2018-12-09T23:38:09.346Z,4.77
2018-12-09T23:40:39.665Z,8.20
2018-12-09T23:43:09.751Z,4.23
2018-12-09T23:45:40.487Z,7.37
2018-12-09T23:48:11.483Z,5.77
2018-12-09T23:50:41.753Z,5.90
2018-12-09T23:53:11.975Z,5.37
2018-12-09T23:55:42.944Z,6.17
2018-12-09T23:58:13.702Z,5.13
